createdAt,value
2023-04-25T00:00:31.106Z,99.90
2023-04-25T00:04:50.934Z,99.90
2023-04-25T00:09:10.160Z,99.90
2023-04-25T00:13:28.031Z,99.90
2023-04-25T00:17:46.952Z,99.90
2023-04-25T00:22:04.898Z,99.90
2023-04-25T00:26:22.240Z,99.90
2023-04-25T00:30:40.951Z,99.90
2023-04-25T00:34:59.111Z,99.90
2023-04-25T00:39:16.330Z,99.90
2023-04-25T00:43:34.884Z,99.90
2023-04-25T00:47:52.568Z,99.90
2023-04-25T00:52:10.697Z,99.90
2023-04-25T00:56:28.247Z,99.90
2023-04-25T01:00:47.781Z,99.90
2023-04-25T01:05:07.980Z,99.90
2023-04-25T01:09:25.644Z,99.90
2023-04-25T01:13:43.077Z,99.90
2023-04-25T01:18:02.130Z,99.90
2023-04-25T01:22:19.713Z,99.90
2023-04-25T01:26:37.470Z,99.90
2023-04-25T01:30:55.400Z,99.90
2023-04-25T01:35:13.316Z,99.90
2023-04-25T01:39:30.725Z,99.90
2023-04-25T01:43:48.506Z,99.90
2023-04-25T01:48:06.200Z,99.90
2023-04-25T01:52:23.498Z,99.90
2023-04-25T01:56:41.245Z,99.90
2023-04-25T02:00:58.705Z,99.90
2023-04-25T02:05:16.047Z,99.90
2023-04-25T02:09:33.387Z,99.90
2023-04-25T02:13:50.868Z,99.90
2023-04-25T02:18:08.285Z,99.90
2023-04-25T02:22:25.691Z,99.90
2023-04-25T02:26:44.351Z,99.90
2023-04-25T02:31:01.920Z,99.90
2023-04-25T02:35:19.560Z,99.90
2023-04-25T02:39:37.366Z,99.90
2023-04-25T02:43:54.581Z,99.90
2023-04-25T02:48:12.192Z,99.90
2023-04-25T02:52:30.778Z,99.90
2023-04-25T02:56:48.674Z,99.90
2023-04-25T03:01:06.058Z,99.90
2023-04-25T03:05:23.401Z,99.90
2023-04-25T03:09:41.298Z,99.90
2023-04-25T03:13:59.009Z,99.90
2023-04-25T03:18:16.467Z,99.90
2023-04-25T03:22:34.101Z,99.90
2023-04-25T03:26:51.614Z,99.90
2023-04-25T03:31:08.923Z,99.90
2023-04-25T03:35:26.663Z,99.90
2023-04-25T03:39:44.198Z,99.90
2023-04-25T03:44:01.536Z,99.90
2023-04-25T03:48:18.851Z,99.90
2023-04-25T03:52:36.320Z,99.90
2023-04-25T03:56:54.637Z,99.90
2023-04-25T04:01:11.985Z,99.90
2023-04-25T04:05:29.551Z,99.90
2023-04-25T04:09:46.897Z,99.90
2023-04-25T04:14:04.446Z,99.90
2023-04-25T04:18:21.925Z,99.90
2023-04-25T04:22:39.101Z,99.90
2023-04-25T04:26:57.720Z,99.90
2023-04-25T04:31:17.951Z,99.90
2023-04-25T04:35:35.426Z,99.90
2023-04-25T04:39:53.273Z,99.90
2023-04-25T04:44:11.358Z,99.90
2023-04-25T04:48:29.305Z,99.90
2023-04-25T04:52:46.696Z,99.90
2023-04-25T04:57:04.366Z,99.90
2023-04-25T05:01:21.763Z,99.90
2023-04-25T05:05:41.149Z,99.90
2023-04-25T05:09:58.421Z,99.90
2023-04-25T05:14:15.812Z,99.90
2023-04-25T05:18:33.170Z,99.90
2023-04-25T05:22:50.725Z,99.90
2023-04-25T05:27:09.723Z,99.90
2023-04-25T05:31:27.537Z,99.90
2023-04-25T05:35:44.810Z,99.90
2023-04-25T05:40:02.141Z,99.90
2023-04-25T05:44:19.384Z,99.90
2023-04-25T05:48:36.609Z,99.90
2023-04-25T05:52:53.800Z,99.90
2023-04-25T05:57:22.832Z,99.90
2023-04-25T06:01:40.235Z,99.90
2023-04-25T06:05:57.885Z,99.90
2023-04-25T06:10:16.114Z,99.90
2023-04-25T06:14:33.768Z,99.90
2023-04-25T06:18:52.428Z,99.90
2023-04-25T06:23:09.637Z,99.90
2023-04-25T06:27:27.224Z,99.90
2023-04-25T06:31:44.645Z,99.90
2023-04-25T06:36:02.300Z,99.90
2023-04-25T06:40:19.682Z,99.90
2023-04-25T06:44:37.313Z,99.90
2023-04-25T06:48:54.611Z,99.90
2023-04-25T06:53:12.647Z,99.90
2023-04-25T06:57:30.371Z,99.90
2023-04-25T07:01:47.805Z,99.90
2023-04-25T07:06:05.801Z,99.90
2023-04-25T07:10:23.149Z,99.90
2023-04-25T07:14:40.746Z,99.90
2023-04-25T07:18:58.067Z,99.90
2023-04-25T07:23:15.312Z,99.90
2023-04-25T07:27:32.693Z,99.90
2023-04-25T07:31:49.937Z,99.90
2023-04-25T07:36:07.698Z,99.90
2023-04-25T07:40:25.183Z,99.90
2023-04-25T07:44:43.686Z,99.90
2023-04-25T07:49:01.085Z,99.90
2023-04-25T07:53:19.312Z,99.90
2023-04-25T07:57:36.695Z,99.90
2023-04-25T08:01:53.901Z,99.90
2023-04-25T08:06:11.406Z,99.90
2023-04-25T08:10:28.994Z,99.90
2023-04-25T08:14:46.309Z,99.90
2023-04-25T08:19:03.906Z,99.90
2023-04-25T08:23:21.302Z,99.90
2023-04-25T08:27:38.889Z,99.90
2023-04-25T08:31:56.435Z,99.90
2023-04-25T08:36:17.323Z,99.90
2023-04-25T08:40:39.984Z,99.90
2023-04-25T08:44:58.474Z,99.90
2023-04-25T08:49:16.662Z,99.90
2023-04-25T08:53:36.369Z,99.90
2023-04-25T08:57:55.917Z,99.90
2023-04-25T09:02:17.738Z,99.90
2023-04-25T09:06:36.372Z,99.90
2023-04-25T09:10:53.588Z,99.90
2023-04-25T09:15:19.690Z,99.90
2023-04-25T09:19:42.032Z,99.90
2023-04-25T09:24:00.649Z,99.90
2023-04-25T09:28:23.658Z,99.90
2023-04-25T09:32:43.306Z,99.90
2023-04-25T09:37:03.051Z,99.90
2023-04-25T09:41:25.117Z,99.90
2023-04-25T09:45:47.030Z,99.90
2023-04-25T09:50:05.000Z,99.90
2023-04-25T09:54:22.654Z,99.90
2023-04-25T09:58:41.669Z,99.90
2023-04-25T10:03:04.788Z,99.90
2023-04-25T10:07:29.570Z,99.90
2023-04-25T10:11:51.573Z,99.90
2023-04-25T10:16:09.393Z,99.90
2023-04-25T10:20:27.053Z,99.90
2023-04-25T10:24:45.208Z,99.90
2023-04-25T10:29:03.944Z,99.90
2023-04-25T10:33:41.074Z,99.90
2023-04-25T10:38:24.889Z,99.90
2023-04-25T10:42:42.501Z,99.90
2023-04-25T10:47:01.885Z,99.90
2023-04-25T10:51:34.599Z,99.90
2023-04-25T10:55:57.739Z,99.90
2023-04-25T11:00:19.841Z,99.90
2023-04-25T11:04:37.870Z,99.90
2023-04-25T11:08:55.720Z,99.90
2023-04-25T11:13:13.405Z,99.90
2023-04-25T11:17:31.168Z,99.90
2023-04-25T11:21:48.583Z,99.90
2023-04-25T11:26:06.225Z,99.90
2023-04-25T11:30:24.766Z,99.90
2023-04-25T11:34:44.953Z,99.90
2023-04-25T11:39:02.851Z,99.90
2023-04-25T11:43:23.740Z,99.90
2023-04-25T11:47:41.413Z,99.90
2023-04-25T11:51:58.880Z,99.90
2023-04-25T11:56:16.305Z,99.90
2023-04-25T12:00:33.641Z,99.90
2023-04-25T12:04:51.225Z,99.90
2023-04-25T12:09:12.097Z,99.90
2023-04-25T12:13:29.698Z,99.90
2023-04-25T12:17:52.394Z,99.90
2023-04-25T12:22:30.103Z,99.90
2023-04-25T12:26:53.136Z,99.90
2023-04-25T12:31:10.450Z,99.90
2023-04-25T12:35:27.723Z,99.90
2023-04-25T12:39:45.292Z,99.90
2023-04-25T12:44:02.549Z,99.90
2023-04-25T12:48:20.589Z,99.90
2023-04-25T12:52:38.984Z,99.90
2023-04-25T12:56:56.505Z,99.90
2023-04-25T13:01:15.000Z,99.90
2023-04-25T13:05:32.494Z,99.90
2023-04-25T13:09:50.054Z,99.90
2023-04-25T13:14:07.753Z,99.90
2023-04-25T13:18:27.588Z,99.90
2023-04-25T13:22:46.716Z,99.90
2023-04-25T13:27:04.303Z,99.90
2023-04-25T13:31:22.378Z,99.90
2023-04-25T13:35:40.589Z,99.90
2023-04-25T13:39:57.856Z,99.90
2023-04-25T13:44:15.345Z,99.90
2023-04-25T13:48:32.689Z,99.90
2023-04-25T13:52:50.001Z,99.90
2023-04-25T13:57:07.878Z,99.90
2023-04-25T14:01:25.300Z,99.90
2023-04-25T14:05:43.068Z,99.90
2023-04-25T14:10:00.484Z,99.90
2023-04-25T14:14:17.763Z,99.90
2023-04-25T14:18:35.005Z,99.90
2023-04-25T14:22:53.084Z,99.90
2023-04-25T14:27:10.499Z,99.90
2023-04-25T14:31:28.213Z,99.90
2023-04-25T14:35:45.582Z,99.90
2023-04-25T14:40:03.073Z,99.90
2023-04-25T14:44:22.225Z,99.90
2023-04-25T14:48:40.038Z,99.90
2023-04-25T14:53:00.201Z,99.90
2023-04-25T14:57:17.592Z,99.90
2023-04-25T15:01:34.942Z,99.90
2023-04-25T15:05:52.178Z,99.90
2023-04-25T15:10:17.629Z,99.90
2023-04-25T15:14:35.061Z,99.90
2023-04-25T15:18:52.212Z,99.90
2023-04-25T15:23:09.674Z,99.90
2023-04-25T15:27:28.238Z,98.40
2023-04-25T15:31:45.628Z,96.90
2023-04-25T15:36:04.486Z,98.70
2023-04-25T15:40:22.228Z,97.00
2023-04-25T15:44:39.454Z,96.50
2023-04-25T15:48:57.090Z,95.90
2023-04-25T15:53:14.364Z,95.30
2023-04-25T15:57:34.441Z,96.70
2023-04-25T16:01:52.468Z,94.60
2023-04-25T16:06:10.013Z,92.60
2023-04-25T16:10:28.429Z,92.00
2023-04-25T16:14:45.806Z,92.30
2023-04-25T16:19:03.221Z,89.60
2023-04-25T16:23:20.628Z,90.40
2023-04-25T16:27:39.623Z,90.30
2023-04-25T16:31:57.146Z,86.00
2023-04-25T16:36:14.586Z,88.60
2023-04-25T16:40:31.934Z,90.50
2023-04-25T16:44:49.222Z,90.30
2023-04-25T16:49:06.920Z,90.50
2023-04-25T16:53:25.606Z,91.00
2023-04-25T16:57:42.712Z,91.80
2023-04-25T17:02:00.238Z,92.70
2023-04-25T17:06:18.126Z,92.90
2023-04-25T17:10:35.481Z,93.00
2023-04-25T17:14:52.843Z,93.70
2023-04-25T17:19:10.357Z,94.70
2023-04-25T17:23:27.837Z,91.70
2023-04-25T17:27:45.049Z,89.10
2023-04-25T17:32:02.993Z,91.10
2023-04-25T17:36:21.434Z,92.30
2023-04-25T17:40:38.750Z,93.50
2023-04-25T17:44:56.304Z,94.80
2023-04-25T17:49:13.553Z,95.70
2023-04-25T17:53:30.986Z,96.00
2023-04-25T17:57:48.302Z,97.80
2023-04-25T18:02:05.632Z,97.40
2023-04-25T18:06:22.936Z,98.80
2023-04-25T18:10:40.801Z,99.90
2023-04-25T18:14:58.087Z,99.90
2023-04-25T18:19:16.523Z,99.90
2023-04-25T18:23:34.302Z,99.90
2023-04-25T18:27:52.112Z,99.90
2023-04-25T18:32:09.958Z,99.90
2023-04-25T18:36:29.798Z,99.90
2023-04-25T18:40:59.133Z,99.90
2023-04-25T18:45:23.536Z,99.90
2023-04-25T18:49:41.382Z,99.90
2023-04-25T18:53:59.403Z,99.90
2023-04-25T18:58:16.689Z,99.90
2023-04-25T19:02:37.281Z,99.90
2023-04-25T19:06:54.785Z,99.90
2023-04-25T19:11:20.900Z,99.90
2023-04-25T19:15:39.963Z,99.90
2023-04-25T19:19:57.496Z,99.90
2023-04-25T19:24:15.065Z,99.90
2023-04-25T19:28:32.792Z,99.90
2023-04-25T19:32:50.596Z,99.90
2023-04-25T19:37:08.054Z,99.90
2023-04-25T19:41:26.206Z,99.90
2023-04-25T19:45:43.801Z,99.90
2023-04-25T19:50:01.272Z,99.90
2023-04-25T19:54:18.529Z,99.90
2023-04-25T19:58:36.029Z,99.90
2023-04-25T20:02:53.255Z,99.90
2023-04-25T20:07:10.598Z,99.90
2023-04-25T20:11:29.188Z,99.90
2023-04-25T20:15:46.846Z,99.90
2023-04-25T20:20:06.755Z,99.90
2023-04-25T20:24:24.180Z,99.90
2023-04-25T20:28:44.421Z,99.90
2023-04-25T20:33:02.171Z,99.90
2023-04-25T20:37:19.501Z,99.90
2023-04-25T20:41:37.855Z,99.90
2023-04-25T20:45:55.224Z,99.90
2023-04-25T20:50:12.654Z,99.90
2023-04-25T20:54:31.120Z,99.90
2023-04-25T20:58:49.926Z,99.90
2023-04-25T21:03:08.035Z,99.90
2023-04-25T21:07:26.950Z,99.90
2023-04-25T21:11:44.349Z,99.90
2023-04-25T21:16:02.241Z,99.90
2023-04-25T21:20:21.036Z,99.90
2023-04-25T21:24:38.373Z,99.90
2023-04-25T21:28:55.691Z,99.90
2023-04-25T21:33:13.862Z,99.90
2023-04-25T21:37:31.131Z,99.90
2023-04-25T21:41:48.456Z,99.90
2023-04-25T21:46:22.066Z,99.90
2023-04-25T21:50:40.278Z,99.90
2023-04-25T21:54:57.699Z,99.90
2023-04-25T21:59:14.986Z,99.90
2023-04-25T22:03:32.761Z,99.90
2023-04-25T22:07:51.663Z,99.90
2023-04-25T22:12:09.180Z,99.90
2023-04-25T22:16:26.780Z,99.90
2023-04-25T22:20:44.367Z,99.90
2023-04-25T22:25:01.819Z,99.90
2023-04-25T22:29:19.069Z,99.90
2023-04-25T22:33:36.467Z,99.90
2023-04-25T22:37:54.758Z,99.90
2023-04-25T22:42:12.157Z,99.90
2023-04-25T22:46:30.008Z,99.90
2023-04-25T22:50:47.475Z,99.90
2023-04-25T22:55:05.256Z,99.90
2023-04-25T22:59:22.671Z,99.90
2023-04-25T23:03:40.453Z,99.90
2023-04-25T23:07:59.314Z,99.90
2023-04-25T23:12:19.376Z,99.90
2023-04-25T23:16:37.215Z,99.90
2023-04-25T23:20:54.647Z,99.90
2023-04-25T23:25:12.073Z,99.90
2023-04-25T23:29:29.314Z,99.90
2023-04-25T23:33:46.744Z,99.90
2023-04-25T23:38:04.072Z,99.90
2023-04-25T23:42:21.361Z,99.90
2023-04-25T23:46:38.645Z,99.90
2023-04-25T23:50:56.229Z,99.90
2023-04-25T23:55:13.777Z,99.90
2023-04-25T23:59:31.818Z,99.90
